createdAt,value
2018-11-26T00:01:33.558Z,31.50
2018-11-26T00:04:21.873Z,30.60
2018-11-26T00:07:10.255Z,31.03
2018-11-26T00:10:17.925Z,30.53
2018-11-26T00:13:06.248Z,30.70
2018-11-26T00:15:35.146Z,30.50
2018-11-26T00:18:04.003Z,32.07
2018-11-26T00:23:26.568Z,30.17
2018-11-26T00:25:55.498Z,29.57
2018-11-26T00:28:43.797Z,29.70
2018-11-26T00:31:12.809Z,29.93
2018-11-26T00:33:41.761Z,30.07
2018-11-26T00:36:30.073Z,32.20
2018-11-26T00:38:58.947Z,32.83
2018-11-26T00:41:27.897Z,30.87
2018-11-26T00:43:56.829Z,32.80
2018-11-26T00:46:38.521Z,31.60
2018-11-26T00:49:07.383Z,31.33
2018-11-26T00:51:36.287Z,33.77
2018-11-26T00:54:05.458Z,32.00
2018-11-26T00:56:34.348Z,31.83
2018-11-26T00:59:03.226Z,32.17
2018-11-26T01:01:32.191Z,33.10
2018-11-26T01:04:20.513Z,33.33
2018-11-26T01:06:49.635Z,33.53
2018-11-26T01:09:18.539Z,32.43
2018-11-26T01:11:47.506Z,32.43
2018-11-26T01:14:16.403Z,32.43
2018-11-26T01:16:45.317Z,32.73
2018-11-26T01:19:14.187Z,31.33
2018-11-26T01:22:02.505Z,31.50
2018-11-26T01:24:50.807Z,32.37
2018-11-26T01:27:20.064Z,31.83
2018-11-26T01:29:48.989Z,31.50
2018-11-26T01:32:18.071Z,30.73
2018-11-26T01:34:46.950Z,31.97
2018-11-26T01:37:15.863Z,30.57
2018-11-26T01:40:04.629Z,30.63
2018-11-26T01:42:33.534Z,31.67
2018-11-26T01:45:02.442Z,30.93
2018-11-26T01:47:31.341Z,30.30
2018-11-26T01:50:00.257Z,30.30
2018-11-26T01:52:29.159Z,31.00
2018-11-26T01:54:58.049Z,28.47
2018-11-26T01:57:46.325Z,30.40
2018-11-26T02:00:34.640Z,30.07
2018-11-26T02:03:03.577Z,29.10
2018-11-26T02:05:32.490Z,28.73
2018-11-26T02:08:01.374Z,29.03
2018-11-26T02:10:49.673Z,28.03
2018-11-26T02:13:18.574Z,29.63
2018-11-26T02:15:47.468Z,27.80
2018-11-26T02:18:16.371Z,27.83
2018-11-26T02:20:45.252Z,27.47
2018-11-26T02:23:14.410Z,28.40
2018-11-26T02:25:43.293Z,28.17
2018-11-26T02:28:12.196Z,28.93
2018-11-26T02:30:41.168Z,28.07
2018-11-26T02:33:10.202Z,26.83
2018-11-26T02:35:39.090Z,27.57
2018-11-26T02:38:08.025Z,26.53
2018-11-26T02:40:56.334Z,25.27
2018-11-26T02:43:44.617Z,26.43
2018-11-26T02:46:32.933Z,25.63
2018-11-26T02:49:01.805Z,26.73
2018-11-26T02:51:30.744Z,25.70
2018-11-26T02:54:19.040Z,25.93
2018-11-26T02:56:48.049Z,25.37
2018-11-26T02:59:36.333Z,25.70
2018-11-26T03:02:05.510Z,25.40
2018-11-26T03:04:53.789Z,25.47
2018-11-26T03:07:22.694Z,24.70
2018-11-26T03:10:11.042Z,24.83
2018-11-26T03:12:59.416Z,26.23
2018-11-26T03:15:47.728Z,26.47
2018-11-26T03:21:29.871Z,24.87
2018-11-26T03:24:18.200Z,24.53
2018-11-26T03:27:06.525Z,24.73
2018-11-26T03:33:26.551Z,25.00
2018-11-26T03:35:55.434Z,22.70
2018-11-26T03:38:35.265Z,24.67
2018-11-26T03:41:04.177Z,24.60
2018-11-26T03:43:33.078Z,23.80
2018-11-26T03:46:13.871Z,25.27
2018-11-26T03:48:42.761Z,24.43
2018-11-26T03:51:31.087Z,25.00
2018-11-26T03:54:19.395Z,24.53
2018-11-26T03:57:07.751Z,23.50
2018-11-26T03:59:36.608Z,23.73
2018-11-26T04:02:05.617Z,23.70
2018-11-26T04:04:34.564Z,22.03
2018-11-26T04:07:03.514Z,24.20
2018-11-26T04:09:32.383Z,23.53
2018-11-26T04:12:01.363Z,22.93
2018-11-26T04:14:49.716Z,22.67
2018-11-26T04:17:38.048Z,22.83
2018-11-26T04:20:26.350Z,22.83
2018-11-26T04:22:55.229Z,22.13
2018-11-26T04:25:24.115Z,22.50
2018-11-26T04:27:53.091Z,22.47
2018-11-26T04:30:22.073Z,21.83
2018-11-26T04:33:10.413Z,22.63
2018-11-26T04:35:58.706Z,22.17
2018-11-26T04:38:47.056Z,23.00
2018-11-26T04:41:15.967Z,22.40
2018-11-26T04:44:04.361Z,23.03
2018-11-26T04:47:11.752Z,22.07
2018-11-26T04:49:40.715Z,22.13
2018-11-26T04:52:29.071Z,22.73
2018-11-26T04:54:57.965Z,21.50
2018-11-26T04:57:46.241Z,23.30
2018-11-26T05:00:34.544Z,22.50
2018-11-26T05:03:22.870Z,23.13
2018-11-26T05:05:51.956Z,23.90
2018-11-26T05:08:40.297Z,23.73
2018-11-26T05:11:28.588Z,23.17
2018-11-26T05:14:16.958Z,23.90
2018-11-26T05:17:05.322Z,23.30
2018-11-26T05:19:34.583Z,23.30
2018-11-26T05:22:03.451Z,23.90
2018-11-26T05:24:51.784Z,24.10
2018-11-26T05:27:20.659Z,23.63
2018-11-26T05:29:49.602Z,23.83
2018-11-26T05:32:18.463Z,22.77
2018-11-26T05:34:47.469Z,22.67
2018-11-26T05:37:16.375Z,23.80
2018-11-26T05:39:45.318Z,23.20
2018-11-26T05:42:33.621Z,23.57
2018-11-26T05:45:21.928Z,23.53
2018-11-26T05:47:50.873Z,22.80
2018-11-26T05:50:39.251Z,21.00
2018-11-26T05:53:27.582Z,22.83
2018-11-26T05:56:15.882Z,22.53
2018-11-26T05:59:04.272Z,22.60
2018-11-26T06:01:33.064Z,23.37
2018-11-26T06:04:01.971Z,23.43
2018-11-26T06:06:30.851Z,23.50
2018-11-26T06:12:33.659Z,23.27
2018-11-26T06:15:22.024Z,22.13
2018-11-26T06:17:50.924Z,22.37
2018-11-26T06:20:19.830Z,22.43
2018-11-26T06:23:08.130Z,22.70
2018-11-26T06:25:37.103Z,21.57
2018-11-26T06:28:25.433Z,21.70
2018-11-26T06:34:27.189Z,21.90
2018-11-26T06:37:15.505Z,22.37
2018-11-26T06:40:03.852Z,23.70
2018-11-26T06:42:52.166Z,21.00
2018-11-26T06:45:40.465Z,22.23
2018-11-26T06:48:21.701Z,22.20
2018-11-26T06:51:03.188Z,22.63
2018-11-26T06:53:44.499Z,21.07
2018-11-26T06:56:13.473Z,22.40
2018-11-26T06:58:42.366Z,22.23
2018-11-26T07:01:11.564Z,22.70
2018-11-26T07:03:40.471Z,22.50
2018-11-26T07:06:09.490Z,22.90
2018-11-26T07:08:58.300Z,22.00
2018-11-26T07:11:46.639Z,22.37
2018-11-26T07:14:34.979Z,22.40
2018-11-26T07:17:23.362Z,22.93
2018-11-26T07:20:15.138Z,21.37
2018-11-26T07:25:52.751Z,21.90
2018-11-26T07:28:41.066Z,21.67
2018-11-26T07:31:29.386Z,22.80
2018-11-26T07:33:58.267Z,21.47
2018-11-26T07:36:46.645Z,21.43
2018-11-26T07:39:34.952Z,20.53
2018-11-26T07:42:23.274Z,21.23
2018-11-26T07:45:12.130Z,21.03
2018-11-26T07:48:00.427Z,22.33
2018-11-26T07:50:29.383Z,21.00
2018-11-26T07:53:17.708Z,22.07
2018-11-26T07:55:46.941Z,21.40
2018-11-26T07:58:35.235Z,21.77
2018-11-26T08:01:23.544Z,21.97
2018-11-26T08:07:26.548Z,22.30
2018-11-26T08:10:15.481Z,22.07
2018-11-26T08:13:03.813Z,21.70
2018-11-26T08:15:52.173Z,22.10
2018-11-26T08:18:40.486Z,24.03
2018-11-26T08:21:28.818Z,23.83
2018-11-26T08:24:17.138Z,25.37
2018-11-26T08:26:46.084Z,24.50
2018-11-26T08:29:15.006Z,24.57
2018-11-26T08:32:03.325Z,26.77
2018-11-26T08:34:32.199Z,25.37
2018-11-26T08:37:20.194Z,26.00
2018-11-26T08:40:08.167Z,25.90
2018-11-26T08:43:15.753Z,25.33
2018-11-26T08:46:23.134Z,26.33
2018-11-26T08:49:11.828Z,26.67
2018-11-26T08:52:00.133Z,25.20
2018-11-26T08:54:48.463Z,27.60
2018-11-26T08:57:36.904Z,26.37
2018-11-26T09:00:25.253Z,26.00
2018-11-26T09:03:32.636Z,26.30
2018-11-26T09:06:21.216Z,27.23
2018-11-26T09:09:10.053Z,27.07
2018-11-26T09:11:58.387Z,27.17
2018-11-26T09:14:46.703Z,26.17
2018-11-26T09:17:35.027Z,26.70
2018-11-26T09:20:23.309Z,28.30
2018-11-26T09:23:11.621Z,26.03
2018-11-26T09:25:40.530Z,27.33
2018-11-26T09:28:09.450Z,26.47
2018-11-26T09:30:38.395Z,27.20
2018-11-26T09:33:26.690Z,25.60
2018-11-26T09:36:15.142Z,25.97
2018-11-26T09:38:44.049Z,25.87
2018-11-26T09:41:32.373Z,26.57
2018-11-26T09:44:01.608Z,26.53
2018-11-26T09:46:30.526Z,27.40
2018-11-26T09:48:59.402Z,26.23
2018-11-26T09:51:28.348Z,26.90
2018-11-26T09:54:16.686Z,26.07
2018-11-26T09:56:45.586Z,25.60
2018-11-26T09:59:14.481Z,25.37
2018-11-26T10:01:43.388Z,25.77
2018-11-26T10:04:12.369Z,25.53
2018-11-26T10:07:00.784Z,25.77
2018-11-26T10:09:49.080Z,24.57
2018-11-26T10:12:37.458Z,24.83
2018-11-26T10:15:30.127Z,24.67
2018-11-26T10:17:58.987Z,24.80
2018-11-26T10:20:47.308Z,25.83
2018-11-26T10:23:35.604Z,25.70
2018-11-26T10:26:23.938Z,25.00
2018-11-26T10:29:12.231Z,24.47
2018-11-26T10:32:00.607Z,25.93
2018-11-26T10:34:48.876Z,24.93
2018-11-26T10:37:17.816Z,26.67
2018-11-26T10:40:26.421Z,26.47
2018-11-26T10:42:55.325Z,24.77
2018-11-26T10:45:24.903Z,25.00
2018-11-26T10:47:53.854Z,25.60
2018-11-26T10:50:42.160Z,24.80
2018-11-26T10:53:11.111Z,24.87
2018-11-26T10:55:40.009Z,25.90
2018-11-26T10:58:08.879Z,25.20
2018-11-26T11:01:16.275Z,25.13
2018-11-26T11:03:45.161Z,25.23
2018-11-26T11:06:33.496Z,26.17
2018-11-26T11:09:21.811Z,25.97
2018-11-26T11:12:10.145Z,24.63
2018-11-26T11:14:39.127Z,24.83
2018-11-26T11:17:27.445Z,24.33
2018-11-26T11:20:35.103Z,24.93
2018-11-26T11:23:23.440Z,24.60
2018-11-26T11:25:52.387Z,24.47
2018-11-26T11:28:21.326Z,24.23
2018-11-26T11:31:09.664Z,24.37
2018-11-26T11:33:38.726Z,24.30
2018-11-26T11:36:07.646Z,25.00
2018-11-26T11:38:55.973Z,25.17
2018-11-26T11:41:44.324Z,24.83
2018-11-26T11:48:17.265Z,24.87
2018-11-26T11:50:46.195Z,24.33
2018-11-26T11:54:11.457Z,24.50
2018-11-26T11:56:59.884Z,25.63
2018-11-26T11:59:48.204Z,24.80
2018-11-26T12:02:17.156Z,26.30
2018-11-26T12:05:06.055Z,26.57
2018-11-26T12:07:35.011Z,27.03
2018-11-26T12:10:23.356Z,27.47
2018-11-26T12:13:12.236Z,27.47
2018-11-26T12:15:42.795Z,27.50
2018-11-26T12:18:31.094Z,27.60
2018-11-26T12:21:00.141Z,28.67
2018-11-26T12:23:48.439Z,26.13
2018-11-26T12:26:17.387Z,27.10
2018-11-26T12:33:09.335Z,27.33
2018-11-26T12:35:57.652Z,27.17
2018-11-26T12:38:45.946Z,28.30
2018-11-26T12:41:14.861Z,28.60
2018-11-26T12:43:43.821Z,27.57
2018-11-26T12:46:25.131Z,28.33
2018-11-26T12:48:54.157Z,28.60
2018-11-26T12:51:42.492Z,28.57
2018-11-26T12:54:30.843Z,29.00
2018-11-26T12:57:19.176Z,28.87
2018-11-26T13:00:27.101Z,27.07
2018-11-26T13:03:15.395Z,27.53
2018-11-26T13:06:03.746Z,29.20
2018-11-26T13:08:52.072Z,27.43
2018-11-26T13:11:20.963Z,27.83
2018-11-26T13:14:09.560Z,28.60
2018-11-26T13:16:57.629Z,23.03
2018-11-26T13:19:45.943Z,28.10
2018-11-26T13:22:14.887Z,27.83
2018-11-26T13:24:43.780Z,28.97
2018-11-26T13:27:32.119Z,28.30
2018-11-26T13:30:39.809Z,27.33
2018-11-26T13:33:28.180Z,27.23
2018-11-26T13:36:16.533Z,29.77
2018-11-26T13:38:45.355Z,27.97
2018-11-26T13:41:14.274Z,28.77
2018-11-26T13:44:02.599Z,29.77
2018-11-26T13:46:31.599Z,30.83
2018-11-26T13:49:19.937Z,29.93
2018-11-26T13:51:49.060Z,30.17
2018-11-26T13:54:37.386Z,28.57
2018-11-26T13:57:25.657Z,29.90
2018-11-26T13:59:54.647Z,29.17
2018-11-26T14:02:23.598Z,28.80
2018-11-26T14:04:52.548Z,28.57
2018-11-26T14:07:21.515Z,29.27
2018-11-26T14:10:29.237Z,27.77
2018-11-26T14:13:17.571Z,27.50
2018-11-26T14:16:06.370Z,28.30
2018-11-26T14:18:54.676Z,28.47
2018-11-26T14:21:42.961Z,28.57
2018-11-26T14:24:31.351Z,28.77
2018-11-26T14:27:00.177Z,27.00
2018-11-26T14:29:29.219Z,26.63
2018-11-26T14:31:58.139Z,27.57
2018-11-26T14:34:27.305Z,27.13
2018-11-26T14:36:56.208Z,27.07
2018-11-26T14:39:44.527Z,27.53
2018-11-26T14:42:32.836Z,27.33
2018-11-26T14:45:01.909Z,27.63
2018-11-26T14:47:50.397Z,27.17
2018-11-26T14:50:19.133Z,27.53
2018-11-26T14:52:48.979Z,26.33
2018-11-26T14:55:37.769Z,26.80
2018-11-26T14:58:26.079Z,26.40
2018-11-26T15:01:14.466Z,27.63
2018-11-26T15:04:02.860Z,27.43
2018-11-26T15:06:51.178Z,27.03
2018-11-26T15:09:39.527Z,28.43
2018-11-26T15:12:28.272Z,28.10
2018-11-26T15:18:05.359Z,28.23
2018-11-26T15:20:53.667Z,29.03
2018-11-26T15:23:42.010Z,28.07
2018-11-26T15:26:10.876Z,28.17
2018-11-26T15:28:59.216Z,28.40
2018-11-26T15:35:32.040Z,28.60
2018-11-26T15:38:00.920Z,28.47
2018-11-26T15:40:49.278Z,27.93
2018-11-26T15:43:37.832Z,27.73
2018-11-26T15:46:19.657Z,27.83
2018-11-26T15:49:01.274Z,26.63
2018-11-26T15:51:42.756Z,26.80
2018-11-26T15:54:23.684Z,27.97
2018-11-26T15:57:04.876Z,26.37
2018-11-26T15:59:46.316Z,27.80
2018-11-26T16:02:53.703Z,27.50
2018-11-26T16:05:32.737Z,27.60
2018-11-26T16:08:10.524Z,27.43
2018-11-26T16:10:39.488Z,28.00
2018-11-26T16:13:10.760Z,27.80
2018-11-26T16:15:44.216Z,28.37
2018-11-26T16:18:27.863Z,28.53
2018-11-26T16:20:59.101Z,27.83
2018-11-26T16:23:28.063Z,28.07
2018-11-26T16:25:59.107Z,26.67
2018-11-26T16:28:34.774Z,27.47
2018-11-26T16:31:04.860Z,26.83
2018-11-26T16:33:46.360Z,27.67
2018-11-26T16:36:16.379Z,28.20
2018-11-26T16:38:46.673Z,27.67
2018-11-26T16:41:17.614Z,25.53
2018-11-26T16:43:49.006Z,27.03
2018-11-26T16:46:18.089Z,27.10
2018-11-26T16:48:57.192Z,26.43
2018-11-26T16:51:28.176Z,25.40
2018-11-26T16:54:02.503Z,26.57
2018-11-26T16:59:25.062Z,27.07
2018-11-26T17:02:00.992Z,27.93
2018-11-26T17:04:37.172Z,27.03
2018-11-26T17:07:20.487Z,26.20
2018-11-26T17:10:02.310Z,25.73
2018-11-26T17:12:31.208Z,28.23
2018-11-26T17:15:01.286Z,26.70
2018-11-26T17:17:36.498Z,27.87
2018-11-26T17:20:15.936Z,26.77
2018-11-26T17:22:47.883Z,27.30
2018-11-26T17:25:17.503Z,27.87
2018-11-26T17:28:00.255Z,26.33
2018-11-26T17:30:32.334Z,26.63
2018-11-26T17:33:03.708Z,25.80
2018-11-26T17:35:48.976Z,25.80
2018-11-26T17:38:18.913Z,26.93
2018-11-26T17:40:48.004Z,26.07
2018-11-26T17:43:17.976Z,25.73
2018-11-26T17:45:50.040Z,27.23
2018-11-26T17:48:18.994Z,25.17
2018-11-26T17:50:57.385Z,26.87
2018-11-26T17:53:33.110Z,25.87
2018-11-26T17:56:18.381Z,26.97
2018-11-26T17:58:59.571Z,26.90
2018-11-26T18:01:39.341Z,26.43
2018-11-26T18:04:13.912Z,25.97
2018-11-26T18:06:47.595Z,25.83
2018-11-26T18:09:34.485Z,25.47
2018-11-26T18:12:04.502Z,26.23
2018-11-26T18:14:35.571Z,26.10
2018-11-26T18:17:10.206Z,27.93
2018-11-26T18:19:40.233Z,25.90
2018-11-26T18:22:12.257Z,25.10
2018-11-26T18:24:54.441Z,25.40
2018-11-26T18:27:23.445Z,26.90
2018-11-26T18:29:52.503Z,25.60
2018-11-26T18:32:27.377Z,25.57
2018-11-26T18:34:58.477Z,25.43
2018-11-26T18:37:33.502Z,26.17
2018-11-26T18:40:04.995Z,26.93
2018-11-26T18:42:41.481Z,25.57
2018-11-26T18:45:14.484Z,25.67
2018-11-26T18:50:37.492Z,25.97
2018-11-26T18:53:13.372Z,26.23
2018-11-26T18:55:50.194Z,27.50
2018-11-26T18:58:19.160Z,26.13
2018-11-26T19:01:01.269Z,26.60
2018-11-26T19:03:33.858Z,26.67
2018-11-26T19:06:04.389Z,25.97
2018-11-26T19:08:34.202Z,25.93
2018-11-26T19:11:14.496Z,26.83
2018-11-26T19:14:04.878Z,25.30
2018-11-26T19:16:36.716Z,26.70
2018-11-26T19:19:16.344Z,26.37
2018-11-26T19:21:50.989Z,25.93
2018-11-26T19:24:21.245Z,25.90
2018-11-26T19:26:52.687Z,25.20
2018-11-26T19:29:22.629Z,26.37
2018-11-26T19:31:55.962Z,25.93
2018-11-26T19:34:24.756Z,27.47
2018-11-26T19:36:55.454Z,26.50
2018-11-26T19:39:26.357Z,27.17
2018-11-26T19:42:05.196Z,27.80
2018-11-26T19:44:35.392Z,27.07
2018-11-26T19:47:05.204Z,26.73
2018-11-26T19:49:35.754Z,26.83
2018-11-26T19:52:06.676Z,26.13
2018-11-26T19:54:41.384Z,26.00
2018-11-26T19:57:14.786Z,26.03
2018-11-26T19:59:50.446Z,27.20
2018-11-26T20:02:21.065Z,25.50
2018-11-26T20:04:56.422Z,25.20
2018-11-26T20:07:27.188Z,26.10
2018-11-26T20:09:58.350Z,25.43
2018-11-26T20:12:28.093Z,25.47
2018-11-26T20:15:01.799Z,26.23
2018-11-26T20:17:35.813Z,25.30
2018-11-26T20:20:06.753Z,25.87
2018-11-26T20:25:31.632Z,25.93
2018-11-26T20:28:06.835Z,25.87
2018-11-26T20:30:36.914Z,27.00
2018-11-26T20:33:07.621Z,24.57
2018-11-26T20:35:44.979Z,24.83
2018-11-26T20:38:15.003Z,25.07
2018-11-26T20:40:49.837Z,25.60
2018-11-26T20:43:20.791Z,24.73
2018-11-26T20:45:50.387Z,25.63
2018-11-26T20:48:23.196Z,24.50
2018-11-26T20:50:52.952Z,25.17
2018-11-26T20:53:27.628Z,25.13
2018-11-26T20:55:59.146Z,23.93
2018-11-26T20:58:33.622Z,24.97
2018-11-26T21:01:03.649Z,24.07
2018-11-26T21:03:35.810Z,23.97
2018-11-26T21:06:06.606Z,24.87
2018-11-26T21:11:32.718Z,24.43
2018-11-26T21:14:08.068Z,23.67
2018-11-26T21:16:43.099Z,22.90
2018-11-26T21:19:16.462Z,23.57
2018-11-26T21:21:56.724Z,23.93
2018-11-26T21:27:25.323Z,22.73
2018-11-26T21:30:08.751Z,22.90
2018-11-26T21:32:39.000Z,23.37
2018-11-26T21:35:17.155Z,24.13
2018-11-26T21:37:49.602Z,24.17
2018-11-26T21:40:25.817Z,23.13
2018-11-26T21:42:55.108Z,22.97
2018-11-26T21:45:28.728Z,22.17
2018-11-26T21:48:05.360Z,22.00
2018-11-26T21:50:40.702Z,23.83
2018-11-26T21:53:23.157Z,22.37
2018-11-26T21:55:54.495Z,22.43
2018-11-26T21:58:25.502Z,22.13
2018-11-26T22:00:59.341Z,21.80
2018-11-26T22:03:36.523Z,22.50
2018-11-26T22:06:08.993Z,22.83
2018-11-26T22:08:42.324Z,22.53
2018-11-26T22:11:31.918Z,22.27
2018-11-26T22:14:02.233Z,22.00
2018-11-26T22:16:33.528Z,23.00
2018-11-26T22:22:00.350Z,22.97
2018-11-26T22:24:45.992Z,22.93
2018-11-26T22:27:29.734Z,23.40
2018-11-26T22:30:17.828Z,22.47
2018-11-26T22:32:57.431Z,22.97
2018-11-26T22:35:30.057Z,22.67
2018-11-26T22:38:00.159Z,23.30
2018-11-26T22:40:37.006Z,24.73
2018-11-26T22:43:06.451Z,22.03
2018-11-26T22:45:40.275Z,23.80
2018-11-26T22:48:11.478Z,23.93
2018-11-26T22:50:58.925Z,23.57
2018-11-26T22:53:27.901Z,24.10
2018-11-26T22:55:56.836Z,23.53
2018-11-26T22:58:31.490Z,23.43
2018-11-26T23:01:11.169Z,23.20
2018-11-26T23:03:46.332Z,22.63
2018-11-26T23:06:22.435Z,23.13
2018-11-26T23:08:58.988Z,24.13
2018-11-26T23:11:28.015Z,24.17
2018-11-26T23:13:57.134Z,24.00
2018-11-26T23:16:36.499Z,23.93
2018-11-26T23:19:11.567Z,22.73
2018-11-26T23:21:40.493Z,22.07
2018-11-26T23:24:27.650Z,23.27
2018-11-26T23:27:08.483Z,24.10
2018-11-26T23:29:51.773Z,22.33
2018-11-26T23:32:22.769Z,23.40
2018-11-26T23:34:55.093Z,23.30
2018-11-26T23:37:26.343Z,23.27
2018-11-26T23:40:11.746Z,23.00
2018-11-26T23:42:48.079Z,22.93
2018-11-26T23:45:23.481Z,23.50
2018-11-26T23:47:52.613Z,22.27
2018-11-26T23:50:45.330Z,23.73
2018-11-26T23:53:24.622Z,22.80
2018-11-26T23:55:57.526Z,21.97
2018-11-26T23:58:30.463Z,22.60
